Clairton, PA (15025)

11:13 AM EST on February 13, 2016 (GMT -0500)
Jefferson Hills | | Change Station
CLOSE
Current Station
Personal Weather Station
Location: Clairton, PA
Elevation: 919 ft
Nearby Weather Stations

Elev 919 ft 40.29 °N, 79.91 °W | Updated 9 seconds ago

Partly Cloudy
Partly Cloudy
11.1 °F
Feels Like 11 °F
N
2.9
Wind Variable Wind from NW
Gusts 4.9 mph

Today
High -- | Low -- °F
--% Chance of Precip.
Yesterday
High -- | Low -- °F
Precip. -- in
Pressure 30.38 in
Visibility 10.0 miles
Clouds Overcast 3700 ft
Windchill 11 °F
Dew Point -22 °F
Humidity 20%
Rainfall 0.00 in
Snow Depth Not available.
7:16 AM 5:52 PM
Waxing Crescent, 32% visible
METAR KAGC 131553Z AUTO 33013G23KT 10SM OVC037 M12/M21 A3030 RMK AO2 SLP288 T11171211 TSNO
Pressure 30.38 in
Visibility 10.0 miles
Clouds Overcast 3700 ft
Windchill 11 °F
Dew Point -22 °F
Humidity 20%
Rainfall 0.00 in
Snow Depth Not available.
7:16 AM 5:52 PM
Waxing Crescent, 32% visible
METAR KAGC 131553Z AUTO 33013G23KT 10SM OVC037 M12/M21 A3030 RMK AO2 SLP288 T11171211 TSNO

10-Day Weather Forecast

Almanac

Astronomy

Feb. 13, 2016 Rise Set
Actual Time
Civil Twilight
Nautical Twilight
Astronomical Twilight
Moon
Length of Visible Light
Length of Day
Tomorrow will be .
, % of the Moon is Illuminated

Today's Extremes

State Highs State Lows

Community

WunderPhotos

Upload Photos

1,892,596 photos uploaded!

WunderBlog® & News

Nearby

Air Quality

  Air Quality AQ Index Pollutant
Not available.

Snow Depth

Station Depth Elevation

Earthquake Activity

City Distance Mag. Time & Date
Minimum magnitude displayed is 2.5.

Coastal Water Temperatures

Place Temperature

Stations

Nearby Weather Stations

Station Location Temp. Windchill Dew Point Humidity Wind Precip. Elev Updated Type
                   

Watches & Warnings

Wind Chill Advisory
Issued: 10:57 AM EST Feb. 13, 2016 – National Weather Service

... Wind Chill Advisory remains in effect until 9 am EST Sunday...

* wind chill... as low as 14 below due to temperatures 4 below to
12 above zero... and winds west 10 to 20 mph with gusts up to
25 mph.

* Impacts... frost bite and hypothermia are possible if
precautions are not taken.